sensor_id;sensor_type;location;lat;lon;timestamp;P1;durP1;ratioP1;P2;durP2;ratioP2
53879;SDS011;39791;53.184;5.486;2022-11-06T00:00:17;8.88;;;4.40;;
53879;SDS011;39791;53.184;5.486;2022-11-06T00:02:43;8.60;;;5.05;;
53879;SDS011;39791;53.184;5.486;2022-11-06T00:05:09;10.57;;;4.85;;
53879;SDS011;39791;53.184;5.486;2022-11-06T00:07:54;12.85;;;6.22;;
53879;SDS011;39791;53.184;5.486;2022-11-06T00:10:19;12.48;;;5.18;;
53879;SDS011;39791;53.184;5.486;2022-11-06T00:12:45;13.40;;;5.22;;
53879;SDS011;39791;53.184;5.486;2022-11-06T00:15:11;14.50;;;6.40;;
53879;SDS011;39791;53.184;5.486;2022-11-06T00:17:37;9.23;;;5.07;;
53879;SDS011;39791;53.184;5.486;2022-11-06T00:20:04;14.90;;;5.85;;
53879;SDS011;39791;53.184;5.486;2022-11-06T00:22:36;10.88;;;5.05;;
53879;SDS011;39791;53.184;5.486;2022-11-06T00:25:03;10.40;;;5.35;;
53879;SDS011;39791;53.184;5.486;2022-11-06T00:27:29;7.40;;;3.88;;
53879;SDS011;39791;53.184;5.486;2022-11-06T00:29:55;10.82;;;4.50;;
53879;SDS011;39791;53.184;5.486;2022-11-06T00:32:20;8.60;;;5.15;;
53879;SDS011;39791;53.184;5.486;2022-11-06T00:34:46;10.30;;;4.30;;
53879;SDS011;39791;53.184;5.486;2022-11-06T00:37:12;9.52;;;4.80;;
53879;SDS011;39791;53.184;5.486;2022-11-06T00:39:38;12.90;;;5.65;;
53879;SDS011;39791;53.184;5.486;2022-11-06T00:42:03;10.43;;;4.82;;
53879;SDS011;39791;53.184;5.486;2022-11-06T00:44:29;9.70;;;5.07;;
53879;SDS011;39791;53.184;5.486;2022-11-06T00:46:55;10.75;;;4.95;;
53879;SDS011;39791;53.184;5.486;2022-11-06T00:49:20;10.20;;;4.88;;
53879;SDS011;39791;53.184;5.486;2022-11-06T00:51:46;10.45;;;5.35;;
53879;SDS011;39791;53.184;5.486;2022-11-06T00:54:12;11.30;;;5.03;;
53879;SDS011;39791;53.184;5.486;2022-11-06T00:56:38;8.68;;;4.68;;
53879;SDS011;39791;53.184;5.486;2022-11-06T00:59:05;12.38;;;5.72;;
53879;SDS011;39791;53.184;5.486;2022-11-06T01:01:32;18.08;;;5.80;;
53879;SDS011;39791;53.184;5.486;2022-11-06T01:04:02;10.68;;;4.75;;
53879;SDS011;39791;53.184;5.486;2022-11-06T01:06:30;8.07;;;4.50;;
53879;SDS011;39791;53.184;5.486;2022-11-06T01:09:01;10.70;;;4.43;;
53879;SDS011;39791;53.184;5.486;2022-11-06T01:11:29;13.88;;;5.15;;
53879;SDS011;39791;53.184;5.486;2022-11-06T01:13:57;13.05;;;4.97;;
53879;SDS011;39791;53.184;5.486;2022-11-06T01:16:25;11.68;;;6.30;;
53879;SDS011;39791;53.184;5.486;2022-11-06T01:18:51;12.63;;;6.22;;
53879;SDS011;39791;53.184;5.486;2022-11-06T01:21:20;13.20;;;5.57;;
53879;SDS011;39791;53.184;5.486;2022-11-06T01:23:50;9.90;;;5.78;;
53879;SDS011;39791;53.184;5.486;2022-11-06T01:26:17;17.23;;;5.28;;
53879;SDS011;39791;53.184;5.486;2022-11-06T01:28:43;11.65;;;6.10;;
53879;SDS011;39791;53.184;5.486;2022-11-06T01:31:10;13.43;;;5.47;;
53879;SDS011;39791;53.184;5.486;2022-11-06T01:33:37;10.48;;;5.35;;
53879;SDS011;39791;53.184;5.486;2022-11-06T01:36:04;11.05;;;6.30;;
53879;SDS011;39791;53.184;5.486;2022-11-06T01:38:30;13.32;;;5.60;;
53879;SDS011;39791;53.184;5.486;2022-11-06T01:40:55;15.30;;;7.65;;
53879;SDS011;39791;53.184;5.486;2022-11-06T01:44:04;8.25;;;4.97;;
53879;SDS011;39791;53.184;5.486;2022-11-06T01:46:21;11.10;;;5.85;;
53879;SDS011;39791;53.184;5.486;2022-11-06T01:48:53;15.50;;;6.43;;
53879;SDS011;39791;53.184;5.486;2022-11-06T01:51:22;13.00;;;6.15;;
53879;SDS011;39791;53.184;5.486;2022-11-06T01:53:50;15.02;;;6.15;;
53879;SDS011;39791;53.184;5.486;2022-11-06T01:56:17;13.25;;;5.63;;
53879;SDS011;39791;53.184;5.486;2022-11-06T01:58:45;10.93;;;5.43;;
53879;SDS011;39791;53.184;5.486;2022-11-06T02:01:12;11.38;;;6.25;;
53879;SDS011;39791;53.184;5.486;2022-11-06T02:03:40;9.40;;;6.10;;
53879;SDS011;39791;53.184;5.486;2022-11-06T02:06:12;9.85;;;6.03;;
53879;SDS011;39791;53.184;5.486;2022-11-06T02:08:38;13.75;;;6.05;;
53879;SDS011;39791;53.184;5.486;2022-11-06T02:11:03;8.98;;;5.13;;
53879;SDS011;39791;53.184;5.486;2022-11-06T02:16:36;14.48;;;6.45;;
53879;SDS011;39791;53.184;5.486;2022-11-06T02:19:15;14.20;;;7.40;;
53879;SDS011;39791;53.184;5.486;2022-11-06T02:25:09;18.58;;;8.18;;
53879;SDS011;39791;53.184;5.486;2022-11-06T02:27:39;14.27;;;6.10;;
53879;SDS011;39791;53.184;5.486;2022-11-06T02:30:13;14.48;;;7.63;;
53879;SDS011;39791;53.184;5.486;2022-11-06T02:32:44;12.55;;;7.03;;
53879;SDS011;39791;53.184;5.486;2022-11-06T02:37:55;13.10;;;7.60;;
53879;SDS011;39791;53.184;5.486;2022-11-06T02:40:25;12.13;;;6.53;;
53879;SDS011;39791;53.184;5.486;2022-11-06T02:42:56;12.18;;;6.97;;
53879;SDS011;39791;53.184;5.486;2022-11-06T02:45:25;15.43;;;7.40;;
53879;SDS011;39791;53.184;5.486;2022-11-06T02:47:53;10.45;;;6.93;;
53879;SDS011;39791;53.184;5.486;2022-11-06T02:50:22;13.88;;;7.93;;
53879;SDS011;39791;53.184;5.486;2022-11-06T02:52:54;19.02;;;7.78;;
53879;SDS011;39791;53.184;5.486;2022-11-06T02:55:33;15.48;;;7.65;;
53879;SDS011;39791;53.184;5.486;2022-11-06T02:58:08;17.42;;;9.15;;
53879;SDS011;39791;53.184;5.486;2022-11-06T03:00:43;12.93;;;7.15;;
53879;SDS011;39791;53.184;5.486;2022-11-06T03:03:15;14.60;;;9.00;;
53879;SDS011;39791;53.184;5.486;2022-11-06T03:05:49;14.30;;;7.90;;
53879;SDS011;39791;53.184;5.486;2022-11-06T03:08:40;11.77;;;7.10;;
53879;SDS011;39791;53.184;5.486;2022-11-06T03:11:28;16.67;;;7.75;;
53879;SDS011;39791;53.184;5.486;2022-11-06T03:16:55;12.88;;;6.82;;
53879;SDS011;39791;53.184;5.486;2022-11-06T03:19:43;10.90;;;6.70;;
53879;SDS011;39791;53.184;5.486;2022-11-06T03:25:04;11.10;;;7.13;;
53879;SDS011;39791;53.184;5.486;2022-11-06T03:30:34;13.05;;;7.15;;
53879;SDS011;39791;53.184;5.486;2022-11-06T03:33:23;11.25;;;7.90;;
53879;SDS011;39791;53.184;5.486;2022-11-06T03:36:00;12.95;;;7.45;;
53879;SDS011;39791;53.184;5.486;2022-11-06T03:38:36;16.42;;;9.90;;
53879;SDS011;39791;53.184;5.486;2022-11-06T03:41:17;11.63;;;7.70;;
53879;SDS011;39791;53.184;5.486;2022-11-06T03:43:46;15.25;;;8.75;;
53879;SDS011;39791;53.184;5.486;2022-11-06T03:46:17;10.68;;;7.18;;
53879;SDS011;39791;53.184;5.486;2022-11-06T03:48:46;10.43;;;6.07;;
53879;SDS011;39791;53.184;5.486;2022-11-06T03:53:52;10.20;;;6.97;;
53879;SDS011;39791;53.184;5.486;2022-11-06T03:56:47;13.18;;;6.53;;
53879;SDS011;39791;53.184;5.486;2022-11-06T03:59:14;11.50;;;7.63;;
53879;SDS011;39791;53.184;5.486;2022-11-06T04:01:46;17.10;;;8.98;;
53879;SDS011;39791;53.184;5.486;2022-11-06T04:04:24;15.18;;;7.70;;
53879;SDS011;39791;53.184;5.486;2022-11-06T04:07:04;8.52;;;6.45;;
53879;SDS011;39791;53.184;5.486;2022-11-06T04:09:34;9.75;;;6.60;;
53879;SDS011;39791;53.184;5.486;2022-11-06T04:12:21;10.30;;;6.03;;
53879;SDS011;39791;53.184;5.486;2022-11-06T04:15:09;13.55;;;7.90;;
53879;SDS011;39791;53.184;5.486;2022-11-06T04:17:39;21.27;;;10.65;;
53879;SDS011;39791;53.184;5.486;2022-11-06T04:20:06;13.07;;;8.02;;
53879;SDS011;39791;53.184;5.486;2022-11-06T04:23:52;15.32;;;9.82;;
53879;SDS011;39791;53.184;5.486;2022-11-06T04:26:05;13.95;;;9.15;;
53879;SDS011;39791;53.184;5.486;2022-11-06T04:29:02;17.25;;;9.35;;
53879;SDS011;39791;53.184;5.486;2022-11-06T04:37:10;13.68;;;7.93;;
53879;SDS011;39791;53.184;5.486;2022-11-06T04:39:42;9.02;;;7.75;;
53879;SDS011;39791;53.184;5.486;2022-11-06T04:42:38;12.73;;;7.80;;
53879;SDS011;39791;53.184;5.486;2022-11-06T04:45:57;12.35;;;8.48;;
53879;SDS011;39791;53.184;5.486;2022-11-06T04:48:05;14.82;;;8.38;;
53879;SDS011;39791;53.184;5.486;2022-11-06T04:50:34;13.18;;;7.35;;
53879;SDS011;39791;53.184;5.486;2022-11-06T04:53:04;11.02;;;7.47;;
53879;SDS011;39791;53.184;5.486;2022-11-06T04:55:35;11.30;;;8.00;;
53879;SDS011;39791;53.184;5.486;2022-11-06T04:58:12;13.93;;;7.32;;
53879;SDS011;39791;53.184;5.486;2022-11-06T05:00:38;17.30;;;8.48;;
53879;SDS011;39791;53.184;5.486;2022-11-06T05:03:08;14.90;;;9.00;;
53879;SDS011;39791;53.184;5.486;2022-11-06T05:05:33;13.23;;;8.00;;
53879;SDS011;39791;53.184;5.486;2022-11-06T05:07:59;15.00;;;9.60;;
53879;SDS011;39791;53.184;5.486;2022-11-06T05:10:24;8.85;;;5.93;;
53879;SDS011;39791;53.184;5.486;2022-11-06T05:12:50;12.05;;;8.30;;
53879;SDS011;39791;53.184;5.486;2022-11-06T05:15:15;12.38;;;7.55;;
53879;SDS011;39791;53.184;5.486;2022-11-06T05:17:41;10.70;;;8.02;;
53879;SDS011;39791;53.184;5.486;2022-11-06T05:20:07;8.30;;;5.07;;
53879;SDS011;39791;53.184;5.486;2022-11-06T05:22:32;10.88;;;6.78;;
53879;SDS011;39791;53.184;5.486;2022-11-06T05:25:16;12.88;;;6.35;;
53879;SDS011;39791;53.184;5.486;2022-11-06T05:27:42;8.15;;;5.60;;
53879;SDS011;39791;53.184;5.486;2022-11-06T05:30:08;7.03;;;4.85;;
53879;SDS011;39791;53.184;5.486;2022-11-06T05:32:33;10.18;;;5.20;;
53879;SDS011;39791;53.184;5.486;2022-11-06T05:34:59;7.25;;;5.05;;
53879;SDS011;39791;53.184;5.486;2022-11-06T05:37:26;9.07;;;6.00;;
53879;SDS011;39791;53.184;5.486;2022-11-06T05:39:51;9.88;;;6.55;;
53879;SDS011;39791;53.184;5.486;2022-11-06T05:42:17;8.65;;;5.68;;
53879;SDS011;39791;53.184;5.486;2022-11-06T05:44:42;8.32;;;5.97;;
53879;SDS011;39791;53.184;5.486;2022-11-06T05:47:08;6.28;;;5.32;;
53879;SDS011;39791;53.184;5.486;2022-11-06T05:49:34;7.28;;;5.50;;
53879;SDS011;39791;53.184;5.486;2022-11-06T05:51:59;9.77;;;6.97;;
53879;SDS011;39791;53.184;5.486;2022-11-06T05:54:25;9.60;;;5.38;;
53879;SDS011;39791;53.184;5.486;2022-11-06T05:56:50;7.47;;;6.15;;
53879;SDS011;39791;53.184;5.486;2022-11-06T05:59:16;8.45;;;6.03;;
53879;SDS011;39791;53.184;5.486;2022-11-06T06:01:41;10.82;;;6.40;;
53879;SDS011;39791;53.184;5.486;2022-11-06T06:04:07;17.35;;;8.30;;
53879;SDS011;39791;53.184;5.486;2022-11-06T06:06:32;9.82;;;6.43;;
53879;SDS011;39791;53.184;5.486;2022-11-06T06:08:58;7.07;;;5.13;;
53879;SDS011;39791;53.184;5.486;2022-11-06T06:11:24;6.65;;;5.13;;
53879;SDS011;39791;53.184;5.486;2022-11-06T06:13:49;6.35;;;4.90;;
53879;SDS011;39791;53.184;5.486;2022-11-06T06:16:15;8.43;;;5.53;;
53879;SDS011;39791;53.184;5.486;2022-11-06T06:18:40;6.43;;;5.10;;
53879;SDS011;39791;53.184;5.486;2022-11-06T06:21:06;9.23;;;6.05;;
53879;SDS011;39791;53.184;5.486;2022-11-06T06:23:31;8.07;;;5.68;;
53879;SDS011;39791;53.184;5.486;2022-11-06T06:25:57;8.05;;;5.75;;
53879;SDS011;39791;53.184;5.486;2022-11-06T06:28:22;11.45;;;6.53;;
53879;SDS011;39791;53.184;5.486;2022-11-06T06:30:48;10.60;;;8.80;;
53879;SDS011;39791;53.184;5.486;2022-11-06T06:33:13;10.95;;;7.60;;
53879;SDS011;39791;53.184;5.486;2022-11-06T06:35:39;11.40;;;7.30;;
53879;SDS011;39791;53.184;5.486;2022-11-06T06:38:04;10.07;;;8.18;;
53879;SDS011;39791;53.184;5.486;2022-11-06T06:40:30;12.45;;;8.98;;
53879;SDS011;39791;53.184;5.486;2022-11-06T06:42:56;11.00;;;8.63;;
53879;SDS011;39791;53.184;5.486;2022-11-06T06:45:22;11.63;;;7.85;;
53879;SDS011;39791;53.184;5.486;2022-11-06T06:47:48;10.82;;;8.38;;
53879;SDS011;39791;53.184;5.486;2022-11-06T06:50:14;11.95;;;7.95;;
53879;SDS011;39791;53.184;5.486;2022-11-06T06:52:39;10.73;;;7.10;;
53879;SDS011;39791;53.184;5.486;2022-11-06T06:55:05;13.25;;;7.53;;
53879;SDS011;39791;53.184;5.486;2022-11-06T06:57:31;7.00;;;6.07;;
53879;SDS011;39791;53.184;5.486;2022-11-06T06:59:56;13.40;;;7.22;;
53879;SDS011;39791;53.184;5.486;2022-11-06T07:02:22;15.15;;;8.05;;
53879;SDS011;39791;53.184;5.486;2022-11-06T07:04:48;14.18;;;8.23;;
53879;SDS011;39791;53.184;5.486;2022-11-06T07:07:13;12.88;;;8.57;;
53879;SDS011;39791;53.184;5.486;2022-11-06T07:09:39;10.93;;;6.82;;
53879;SDS011;39791;53.184;5.486;2022-11-06T07:12:04;9.48;;;6.65;;
53879;SDS011;39791;53.184;5.486;2022-11-06T07:14:30;11.80;;;7.20;;
53879;SDS011;39791;53.184;5.486;2022-11-06T07:16:55;12.48;;;7.05;;
53879;SDS011;39791;53.184;5.486;2022-11-06T07:19:21;17.30;;;8.02;;
53879;SDS011;39791;53.184;5.486;2022-11-06T07:21:49;11.88;;;7.53;;
53879;SDS011;39791;53.184;5.486;2022-11-06T07:24:16;9.32;;;6.43;;
53879;SDS011;39791;53.184;5.486;2022-11-06T07:26:42;13.82;;;7.28;;
53879;SDS011;39791;53.184;5.486;2022-11-06T07:29:08;12.15;;;5.93;;
53879;SDS011;39791;53.184;5.486;2022-11-06T07:31:34;11.40;;;6.65;;
53879;SDS011;39791;53.184;5.486;2022-11-06T07:33:59;13.60;;;8.00;;
53879;SDS011;39791;53.184;5.486;2022-11-06T07:36:25;10.48;;;5.88;;
53879;SDS011;39791;53.184;5.486;2022-11-06T07:38:50;12.77;;;7.22;;
53879;SDS011;39791;53.184;5.486;2022-11-06T07:41:16;23.13;;;9.60;;
53879;SDS011;39791;53.184;5.486;2022-11-06T07:43:41;18.60;;;7.55;;
53879;SDS011;39791;53.184;5.486;2022-11-06T07:46:08;12.20;;;6.00;;
53879;SDS011;39791;53.184;5.486;2022-11-06T07:48:35;11.50;;;6.00;;
53879;SDS011;39791;53.184;5.486;2022-11-06T07:51:02;13.38;;;6.57;;
53879;SDS011;39791;53.184;5.486;2022-11-06T07:53:29;8.73;;;5.07;;
53879;SDS011;39791;53.184;5.486;2022-11-06T07:55:55;15.75;;;5.65;;
53879;SDS011;39791;53.184;5.486;2022-11-06T07:58:21;13.88;;;6.22;;
53879;SDS011;39791;53.184;5.486;2022-11-06T08:00:48;16.70;;;7.22;;
53879;SDS011;39791;53.184;5.486;2022-11-06T08:03:15;12.82;;;6.30;;
53879;SDS011;39791;53.184;5.486;2022-11-06T08:05:41;8.25;;;4.95;;
53879;SDS011;39791;53.184;5.486;2022-11-06T08:08:07;13.90;;;5.93;;
53879;SDS011;39791;53.184;5.486;2022-11-06T08:10:33;12.25;;;5.47;;
53879;SDS011;39791;53.184;5.486;2022-11-06T08:13:01;8.98;;;4.95;;
53879;SDS011;39791;53.184;5.486;2022-11-06T08:15:27;12.32;;;5.70;;
53879;SDS011;39791;53.184;5.486;2022-11-06T08:17:53;14.45;;;6.28;;
53879;SDS011;39791;53.184;5.486;2022-11-06T08:20:18;12.75;;;5.32;;
53879;SDS011;39791;53.184;5.486;2022-11-06T08:22:44;15.38;;;6.13;;
53879;SDS011;39791;53.184;5.486;2022-11-06T08:25:09;7.35;;;4.75;;
53879;SDS011;39791;53.184;5.486;2022-11-06T08:27:35;10.60;;;4.43;;
53879;SDS011;39791;53.184;5.486;2022-11-06T08:30:01;10.30;;;4.88;;
53879;SDS011;39791;53.184;5.486;2022-11-06T08:32:27;12.75;;;4.78;;
53879;SDS011;39791;53.184;5.486;2022-11-06T08:34:53;8.52;;;3.95;;
53879;SDS011;39791;53.184;5.486;2022-11-06T08:37:19;13.57;;;5.22;;
53879;SDS011;39791;53.184;5.486;2022-11-06T08:39:44;10.15;;;4.50;;
53879;SDS011;39791;53.184;5.486;2022-11-06T08:42:10;7.47;;;4.45;;
53879;SDS011;39791;53.184;5.486;2022-11-06T08:44:36;9.77;;;4.55;;
53879;SDS011;39791;53.184;5.486;2022-11-06T08:47:01;15.10;;;5.63;;
53879;SDS011;39791;53.184;5.486;2022-11-06T08:49:27;13.95;;;5.35;;
53879;SDS011;39791;53.184;5.486;2022-11-06T08:51:52;9.77;;;4.22;;
53879;SDS011;39791;53.184;5.486;2022-11-06T08:54:18;12.82;;;4.18;;
53879;SDS011;39791;53.184;5.486;2022-11-06T08:56:44;9.35;;;4.60;;
53879;SDS011;39791;53.184;5.486;2022-11-06T08:59:09;12.63;;;4.40;;
53879;SDS011;39791;53.184;5.486;2022-11-06T09:01:35;10.63;;;4.75;;
53879;SDS011;39791;53.184;5.486;2022-11-06T09:04:00;8.10;;;3.72;;
53879;SDS011;39791;53.184;5.486;2022-11-06T09:06:26;5.03;;;3.55;;
53879;SDS011;39791;53.184;5.486;2022-11-06T09:08:52;5.45;;;3.33;;
53879;SDS011;39791;53.184;5.486;2022-11-06T09:11:17;8.55;;;3.70;;
53879;SDS011;39791;53.184;5.486;2022-11-06T09:13:43;8.13;;;3.78;;
53879;SDS011;39791;53.184;5.486;2022-11-06T09:16:08;8.93;;;4.68;;
53879;SDS011;39791;53.184;5.486;2022-11-06T09:18:34;8.98;;;4.13;;
53879;SDS011;39791;53.184;5.486;2022-11-06T09:20:59;11.93;;;4.85;;
53879;SDS011;39791;53.184;5.486;2022-11-06T09:23:25;6.97;;;3.70;;
53879;SDS011;39791;53.184;5.486;2022-11-06T09:25:50;6.57;;;3.40;;
53879;SDS011;39791;53.184;5.486;2022-11-06T09:28:16;7.40;;;3.40;;
53879;SDS011;39791;53.184;5.486;2022-11-06T09:30:42;5.15;;;2.80;;
53879;SDS011;39791;53.184;5.486;2022-11-06T09:33:07;8.07;;;3.45;;
53879;SDS011;39791;53.184;5.486;2022-11-06T09:35:33;8.77;;;4.15;;
53879;SDS011;39791;53.184;5.486;2022-11-06T09:38:00;9.88;;;4.30;;
53879;SDS011;39791;53.184;5.486;2022-11-06T09:40:33;14.43;;;4.40;;
53879;SDS011;39791;53.184;5.486;2022-11-06T09:45:32;10.88;;;4.07;;
53879;SDS011;39791;53.184;5.486;2022-11-06T09:50:34;5.55;;;2.85;;
53879;SDS011;39791;53.184;5.486;2022-11-06T09:55:56;6.03;;;3.47;;
53879;SDS011;39791;53.184;5.486;2022-11-06T09:58:27;11.02;;;4.50;;
53879;SDS011;39791;53.184;5.486;2022-11-06T10:00:58;10.57;;;3.83;;
53879;SDS011;39791;53.184;5.486;2022-11-06T10:03:38;9.55;;;3.40;;
53879;SDS011;39791;53.184;5.486;2022-11-06T10:06:06;5.45;;;3.00;;
53879;SDS011;39791;53.184;5.486;2022-11-06T10:08:32;11.27;;;3.58;;
53879;SDS011;39791;53.184;5.486;2022-11-06T10:11:06;7.63;;;3.30;;
53879;SDS011;39791;53.184;5.486;2022-11-06T10:16:34;11.20;;;3.58;;
53879;SDS011;39791;53.184;5.486;2022-11-06T10:25:26;6.40;;;3.13;;
53879;SDS011;39791;53.184;5.486;2022-11-06T10:28:30;6.93;;;3.55;;
53879;SDS011;39791;53.184;5.486;2022-11-06T10:37:04;8.02;;;3.55;;
53879;SDS011;39791;53.184;5.486;2022-11-06T10:39:14;8.68;;;3.53;;
53879;SDS011;39791;53.184;5.486;2022-11-06T10:41:46;14.27;;;3.92;;
53879;SDS011;39791;53.184;5.486;2022-11-06T10:44:24;9.40;;;3.88;;
53879;SDS011;39791;53.184;5.486;2022-11-06T10:46:58;5.38;;;3.08;;
53879;SDS011;39791;53.184;5.486;2022-11-06T10:49:48;8.85;;;2.90;;
53879;SDS011;39791;53.184;5.486;2022-11-06T10:58:00;13.98;;;4.22;;
53879;SDS011;39791;53.184;5.486;2022-11-06T11:00:46;10.60;;;4.82;;
53879;SDS011;39791;53.184;5.486;2022-11-06T11:03:25;6.38;;;3.55;;
53879;SDS011;39791;53.184;5.486;2022-11-06T11:05:55;10.32;;;4.28;;
53879;SDS011;39791;53.184;5.486;2022-11-06T11:08:41;6.72;;;3.72;;
53879;SDS011;39791;53.184;5.486;2022-11-06T11:11:24;5.45;;;3.03;;
53879;SDS011;39791;53.184;5.486;2022-11-06T11:16:24;9.57;;;4.13;;
53879;SDS011;39791;53.184;5.486;2022-11-06T11:19:13;5.18;;;3.05;;
53879;SDS011;39791;53.184;5.486;2022-11-06T11:21:38;5.97;;;3.10;;
53879;SDS011;39791;53.184;5.486;2022-11-06T11:24:19;12.32;;;4.13;;
53879;SDS011;39791;53.184;5.486;2022-11-06T11:26:48;7.30;;;3.05;;
53879;SDS011;39791;53.184;5.486;2022-11-06T11:32:18;9.32;;;3.38;;
53879;SDS011;39791;53.184;5.486;2022-11-06T11:34:46;7.55;;;3.58;;
53879;SDS011;39791;53.184;5.486;2022-11-06T11:39:55;10.13;;;3.22;;
53879;SDS011;39791;53.184;5.486;2022-11-06T11:42:40;7.28;;;3.28;;
53879;SDS011;39791;53.184;5.486;2022-11-06T11:47:40;4.18;;;2.40;;
53879;SDS011;39791;53.184;5.486;2022-11-06T11:50:24;6.03;;;2.63;;
53879;SDS011;39791;53.184;5.486;2022-11-06T11:53:02;7.82;;;2.83;;
53879;SDS011;39791;53.184;5.486;2022-11-06T11:55:35;6.20;;;2.78;;
53879;SDS011;39791;53.184;5.486;2022-11-06T11:58:05;7.18;;;2.40;;
53879;SDS011;39791;53.184;5.486;2022-11-06T12:00:50;8.98;;;3.28;;
53879;SDS011;39791;53.184;5.486;2022-11-06T12:03:17;15.88;;;3.33;;
53879;SDS011;39791;53.184;5.486;2022-11-06T12:05:44;16.23;;;2.35;;
53879;SDS011;39791;53.184;5.486;2022-11-06T12:08:18;9.63;;;2.90;;
53879;SDS011;39791;53.184;5.486;2022-11-06T12:10:48;7.90;;;2.47;;
53879;SDS011;39791;53.184;5.486;2022-11-06T12:13:21;8.13;;;2.50;;
53879;SDS011;39791;53.184;5.486;2022-11-06T12:16:04;7.15;;;2.30;;
53879;SDS011;39791;53.184;5.486;2022-11-06T12:18:35;3.70;;;2.25;;
53879;SDS011;39791;53.184;5.486;2022-11-06T12:21:05;8.30;;;2.70;;
53879;SDS011;39791;53.184;5.486;2022-11-06T12:23:48;9.45;;;2.70;;
53879;SDS011;39791;53.184;5.486;2022-11-06T12:26:36;3.90;;;1.88;;
53879;SDS011;39791;53.184;5.486;2022-11-06T12:29:14;9.45;;;2.42;;
53879;SDS011;39791;53.184;5.486;2022-11-06T12:35:04;8.02;;;2.97;;
53879;SDS011;39791;53.184;5.486;2022-11-06T12:40:28;5.93;;;2.53;;
53879;SDS011;39791;53.184;5.486;2022-11-06T12:43:09;8.40;;;2.67;;
53879;SDS011;39791;53.184;5.486;2022-11-06T12:51:01;7.55;;;2.47;;
53879;SDS011;39791;53.184;5.486;2022-11-06T12:53:39;7.18;;;2.85;;
53879;SDS011;39791;53.184;5.486;2022-11-06T12:56:28;9.25;;;2.63;;
53879;SDS011;39791;53.184;5.486;2022-11-06T12:59:07;7.90;;;2.30;;
53879;SDS011;39791;53.184;5.486;2022-11-06T13:01:44;7.07;;;2.60;;
53879;SDS011;39791;53.184;5.486;2022-11-06T13:04:37;4.55;;;2.25;;
53879;SDS011;39791;53.184;5.486;2022-11-06T13:10:05;4.07;;;1.80;;
53879;SDS011;39791;53.184;5.486;2022-11-06T13:12:45;6.03;;;2.20;;
53879;SDS011;39791;53.184;5.486;2022-11-06T13:15:30;7.63;;;2.20;;
53879;SDS011;39791;53.184;5.486;2022-11-06T13:21:24;10.25;;;2.50;;
53879;SDS011;39791;53.184;5.486;2022-11-06T13:24:01;4.67;;;2.20;;
53879;SDS011;39791;53.184;5.486;2022-11-06T13:26:45;6.10;;;2.20;;
53879;SDS011;39791;53.184;5.486;2022-11-06T13:29:16;10.55;;;2.47;;
53879;SDS011;39791;53.184;5.486;2022-11-06T13:31:55;7.40;;;2.00;;
53879;SDS011;39791;53.184;5.486;2022-11-06T13:34:33;7.20;;;2.03;;
53879;SDS011;39791;53.184;5.486;2022-11-06T13:37:01;5.10;;;2.40;;
53879;SDS011;39791;53.184;5.486;2022-11-06T13:39:44;5.20;;;2.10;;
53879;SDS011;39791;53.184;5.486;2022-11-06T13:42:21;5.88;;;2.72;;
53879;SDS011;39791;53.184;5.486;2022-11-06T13:44:53;6.93;;;3.15;;
53879;SDS011;39791;53.184;5.486;2022-11-06T13:47:21;7.03;;;2.60;;
53879;SDS011;39791;53.184;5.486;2022-11-06T13:52:48;5.40;;;2.50;;
53879;SDS011;39791;53.184;5.486;2022-11-06T13:55:35;4.05;;;2.00;;
53879;SDS011;39791;53.184;5.486;2022-11-06T14:06:14;6.47;;;2.45;;
53879;SDS011;39791;53.184;5.486;2022-11-06T14:09:26;6.80;;;2.30;;
53879;SDS011;39791;53.184;5.486;2022-11-06T14:11:38;6.32;;;1.67;;
53879;SDS011;39791;53.184;5.486;2022-11-06T14:14:28;9.93;;;2.38;;
53879;SDS011;39791;53.184;5.486;2022-11-06T14:17:09;6.00;;;1.95;;
53879;SDS011;39791;53.184;5.486;2022-11-06T14:22:29;10.80;;;2.58;;
53879;SDS011;39791;53.184;5.486;2022-11-06T14:24:57;10.85;;;2.42;;
53879;SDS011;39791;53.184;5.486;2022-11-06T14:30:02;7.57;;;2.40;;
53879;SDS011;39791;53.184;5.486;2022-11-06T14:32:35;6.47;;;2.17;;
53879;SDS011;39791;53.184;5.486;2022-11-06T14:37:53;5.03;;;1.95;;
53879;SDS011;39791;53.184;5.486;2022-11-06T14:40:34;4.80;;;2.17;;
53879;SDS011;39791;53.184;5.486;2022-11-06T14:43:10;5.78;;;2.30;;
53879;SDS011;39791;53.184;5.486;2022-11-06T14:45:48;8.60;;;2.25;;
53879;SDS011;39791;53.184;5.486;2022-11-06T14:48:36;9.10;;;2.45;;
53879;SDS011;39791;53.184;5.486;2022-11-06T14:51:05;6.00;;;2.10;;
53879;SDS011;39791;53.184;5.486;2022-11-06T14:53:37;4.97;;;1.83;;
53879;SDS011;39791;53.184;5.486;2022-11-06T14:56:18;5.18;;;2.15;;
53879;SDS011;39791;53.184;5.486;2022-11-06T14:58:46;4.88;;;2.10;;
53879;SDS011;39791;53.184;5.486;2022-11-06T15:01:25;4.15;;;2.63;;
53879;SDS011;39791;53.184;5.486;2022-11-06T15:03:56;8.63;;;2.33;;
53879;SDS011;39791;53.184;5.486;2022-11-06T15:08:58;8.15;;;2.90;;
53879;SDS011;39791;53.184;5.486;2022-11-06T15:16:34;8.35;;;2.58;;
53879;SDS011;39791;53.184;5.486;2022-11-06T15:21:53;4.00;;;2.03;;
53879;SDS011;39791;53.184;5.486;2022-11-06T15:24:24;5.05;;;2.10;;
53879;SDS011;39791;53.184;5.486;2022-11-06T15:26:53;4.53;;;1.80;;
53879;SDS011;39791;53.184;5.486;2022-11-06T15:29:32;6.15;;;1.83;;
53879;SDS011;39791;53.184;5.486;2022-11-06T15:32:17;8.82;;;2.05;;
53879;SDS011;39791;53.184;5.486;2022-11-06T15:34:58;6.40;;;2.10;;
53879;SDS011;39791;53.184;5.486;2022-11-06T15:37:29;7.15;;;1.77;;
53879;SDS011;39791;53.184;5.486;2022-11-06T15:39:59;7.43;;;1.88;;
53879;SDS011;39791;53.184;5.486;2022-11-06T15:42:29;5.43;;;2.00;;
53879;SDS011;39791;53.184;5.486;2022-11-06T15:45:05;4.68;;;2.20;;
53879;SDS011;39791;53.184;5.486;2022-11-06T15:47:57;4.10;;;2.00;;
53879;SDS011;39791;53.184;5.486;2022-11-06T15:50:29;9.43;;;2.70;;
53879;SDS011;39791;53.184;5.486;2022-11-06T15:53:19;5.60;;;2.00;;
53879;SDS011;39791;53.184;5.486;2022-11-06T15:55:51;6.25;;;2.13;;
53879;SDS011;39791;53.184;5.486;2022-11-06T16:00:54;9.50;;;2.22;;
53879;SDS011;39791;53.184;5.486;2022-11-06T16:03:21;5.90;;;2.13;;
53879;SDS011;39791;53.184;5.486;2022-11-06T16:05:51;9.88;;;2.45;;
53879;SDS011;39791;53.184;5.486;2022-11-06T16:08:19;4.78;;;2.03;;
53879;SDS011;39791;53.184;5.486;2022-11-06T16:10:47;7.32;;;2.10;;
53879;SDS011;39791;53.184;5.486;2022-11-06T16:13:14;7.78;;;2.22;;
53879;SDS011;39791;53.184;5.486;2022-11-06T16:21:08;3.25;;;1.75;;
53879;SDS011;39791;53.184;5.486;2022-11-06T16:23:47;8.18;;;2.33;;
53879;SDS011;39791;53.184;5.486;2022-11-06T16:26:44;13.23;;;2.50;;
53879;SDS011;39791;53.184;5.486;2022-11-06T16:29:20;8.05;;;2.67;;
53879;SDS011;39791;53.184;5.486;2022-11-06T16:32:08;6.45;;;2.05;;
53879;SDS011;39791;53.184;5.486;2022-11-06T16:34:41;9.55;;;2.03;;
53879;SDS011;39791;53.184;5.486;2022-11-06T16:39:48;4.75;;;2.15;;
53879;SDS011;39791;53.184;5.486;2022-11-06T16:47:41;3.38;;;1.83;;
53879;SDS011;39791;53.184;5.486;2022-11-06T16:50:46;6.13;;;2.00;;
53879;SDS011;39791;53.184;5.486;2022-11-06T16:53:18;7.65;;;2.15;;
53879;SDS011;39791;53.184;5.486;2022-11-06T16:55:55;8.50;;;2.42;;
53879;SDS011;39791;53.184;5.486;2022-11-06T16:58:24;4.50;;;1.85;;
53879;SDS011;39791;53.184;5.486;2022-11-06T17:00:54;3.70;;;2.30;;
53879;SDS011;39791;53.184;5.486;2022-11-06T17:03:23;5.00;;;1.85;;
53879;SDS011;39791;53.184;5.486;2022-11-06T17:05:56;8.30;;;2.35;;
53879;SDS011;39791;53.184;5.486;2022-11-06T17:10:58;6.25;;;1.90;;
53879;SDS011;39791;53.184;5.486;2022-11-06T17:13:39;6.68;;;2.05;;
53879;SDS011;39791;53.184;5.486;2022-11-06T17:16:10;9.77;;;2.63;;